sensor_id;sensor_type;location;lat;lon;timestamp;P1;durP1;ratioP1;P2;durP2;ratioP2
41946;SDS011;27638;42.184;24.848;2023-02-18T00:00:57;15.45;;;7.10;;
41946;SDS011;27638;42.184;24.848;2023-02-18T00:03:25;7.10;;;4.28;;
41946;SDS011;27638;42.184;24.848;2023-02-18T00:05:54;10.07;;;5.47;;
41946;SDS011;27638;42.184;24.848;2023-02-18T00:08:20;8.82;;;5.05;;
41946;SDS011;27638;42.184;24.848;2023-02-18T00:10:46;12.23;;;6.78;;
41946;SDS011;27638;42.184;24.848;2023-02-18T00:13:12;8.65;;;5.40;;
41946;SDS011;27638;42.184;24.848;2023-02-18T00:15:38;10.40;;;5.10;;
41946;SDS011;27638;42.184;24.848;2023-02-18T00:18:04;10.23;;;5.30;;
41946;SDS011;27638;42.184;24.848;2023-02-18T00:20:30;11.02;;;5.95;;
41946;SDS011;27638;42.184;24.848;2023-02-18T00:22:57;8.45;;;5.18;;
41946;SDS011;27638;42.184;24.848;2023-02-18T00:25:23;7.45;;;4.80;;
41946;SDS011;27638;42.184;24.848;2023-02-18T00:27:48;9.63;;;4.97;;
41946;SDS011;27638;42.184;24.848;2023-02-18T00:30:14;8.30;;;5.20;;
41946;SDS011;27638;42.184;24.848;2023-02-18T00:32:39;8.77;;;4.88;;
41946;SDS011;27638;42.184;24.848;2023-02-18T00:35:05;12.55;;;5.47;;
41946;SDS011;27638;42.184;24.848;2023-02-18T00:37:30;10.20;;;5.82;;
41946;SDS011;27638;42.184;24.848;2023-02-18T00:39:56;7.30;;;5.00;;
41946;SDS011;27638;42.184;24.848;2023-02-18T00:42:21;8.70;;;4.75;;
41946;SDS011;27638;42.184;24.848;2023-02-18T00:44:47;8.52;;;5.32;;
41946;SDS011;27638;42.184;24.848;2023-02-18T00:47:12;10.75;;;5.93;;
41946;SDS011;27638;42.184;24.848;2023-02-18T00:49:38;9.18;;;4.97;;
41946;SDS011;27638;42.184;24.848;2023-02-18T00:52:03;6.93;;;4.43;;
41946;SDS011;27638;42.184;24.848;2023-02-18T00:54:29;7.82;;;4.50;;
41946;SDS011;27638;42.184;24.848;2023-02-18T00:56:54;9.15;;;5.15;;
41946;SDS011;27638;42.184;24.848;2023-02-18T00:59:20;8.30;;;4.63;;
41946;SDS011;27638;42.184;24.848;2023-02-18T01:01:45;8.50;;;5.13;;
41946;SDS011;27638;42.184;24.848;2023-02-18T01:04:11;7.75;;;5.07;;
41946;SDS011;27638;42.184;24.848;2023-02-18T01:06:37;10.40;;;6.25;;
41946;SDS011;27638;42.184;24.848;2023-02-18T01:09:03;7.65;;;5.50;;
41946;SDS011;27638;42.184;24.848;2023-02-18T01:11:30;10.95;;;5.80;;
41946;SDS011;27638;42.184;24.848;2023-02-18T01:13:56;10.18;;;5.78;;
41946;SDS011;27638;42.184;24.848;2023-02-18T01:16:22;10.07;;;5.60;;
41946;SDS011;27638;42.184;24.848;2023-02-18T01:18:48;10.70;;;5.57;;
41946;SDS011;27638;42.184;24.848;2023-02-18T01:21:13;9.05;;;5.78;;
41946;SDS011;27638;42.184;24.848;2023-02-18T01:23:40;9.07;;;5.10;;
41946;SDS011;27638;42.184;24.848;2023-02-18T01:26:06;9.50;;;5.15;;
41946;SDS011;27638;42.184;24.848;2023-02-18T01:28:32;9.95;;;5.07;;
41946;SDS011;27638;42.184;24.848;2023-02-18T01:31:02;9.25;;;5.28;;
41946;SDS011;27638;42.184;24.848;2023-02-18T01:33:30;11.18;;;5.63;;
41946;SDS011;27638;42.184;24.848;2023-02-18T01:35:55;9.63;;;5.95;;
41946;SDS011;27638;42.184;24.848;2023-02-18T01:38:21;7.03;;;4.50;;
41946;SDS011;27638;42.184;24.848;2023-02-18T01:40:48;7.30;;;5.22;;
41946;SDS011;27638;42.184;24.848;2023-02-18T01:43:18;9.43;;;5.47;;
41946;SDS011;27638;42.184;24.848;2023-02-18T01:48:20;11.43;;;5.47;;
41946;SDS011;27638;42.184;24.848;2023-02-18T01:50:55;10.82;;;5.78;;
41946;SDS011;27638;42.184;24.848;2023-02-18T01:53:27;12.48;;;6.15;;
41946;SDS011;27638;42.184;24.848;2023-02-18T01:55:59;13.32;;;6.18;;
41946;SDS011;27638;42.184;24.848;2023-02-18T01:58:29;11.60;;;4.82;;
41946;SDS011;27638;42.184;24.848;2023-02-18T02:00:55;8.73;;;5.55;;
41946;SDS011;27638;42.184;24.848;2023-02-18T02:03:20;16.40;;;6.32;;
41946;SDS011;27638;42.184;24.848;2023-02-18T02:05:46;8.98;;;5.28;;
41946;SDS011;27638;42.184;24.848;2023-02-18T02:08:11;9.95;;;5.93;;
41946;SDS011;27638;42.184;24.848;2023-02-18T02:10:57;16.15;;;7.95;;
41946;SDS011;27638;42.184;24.848;2023-02-18T02:13:34;11.27;;;6.63;;
41946;SDS011;27638;42.184;24.848;2023-02-18T02:16:29;9.38;;;6.20;;
41946;SDS011;27638;42.184;24.848;2023-02-18T02:41:27;10.43;;;5.85;;
41946;SDS011;27638;42.184;24.848;2023-02-18T02:44:18;13.45;;;7.13;;
41946;SDS011;27638;42.184;24.848;2023-02-18T02:46:47;10.25;;;6.68;;
41946;SDS011;27638;42.184;24.848;2023-02-18T02:52:29;8.18;;;5.72;;
41946;SDS011;27638;42.184;24.848;2023-02-18T02:54:55;13.07;;;6.13;;
41946;SDS011;27638;42.184;24.848;2023-02-18T02:59:48;11.52;;;5.65;;
41946;SDS011;27638;42.184;24.848;2023-02-18T03:13:15;9.90;;;5.85;;
41946;SDS011;27638;42.184;24.848;2023-02-18T03:16:34;12.50;;;6.35;;
41946;SDS011;27638;42.184;24.848;2023-02-18T03:21:33;11.80;;;6.18;;
41946;SDS011;27638;42.184;24.848;2023-02-18T03:24:15;9.82;;;6.20;;
41946;SDS011;27638;42.184;24.848;2023-02-18T03:26:48;11.00;;;6.20;;
41946;SDS011;27638;42.184;24.848;2023-02-18T03:29:18;12.32;;;7.00;;
41946;SDS011;27638;42.184;24.848;2023-02-18T03:31:45;13.07;;;8.27;;
41946;SDS011;27638;42.184;24.848;2023-02-18T03:34:17;11.75;;;7.28;;
41946;SDS011;27638;42.184;24.848;2023-02-18T03:36:49;11.40;;;6.97;;
41946;SDS011;27638;42.184;24.848;2023-02-18T03:39:17;13.80;;;6.95;;
41946;SDS011;27638;42.184;24.848;2023-02-18T03:41:44;10.05;;;6.45;;
41946;SDS011;27638;42.184;24.848;2023-02-18T03:44:10;19.13;;;8.52;;
41946;SDS011;27638;42.184;24.848;2023-02-18T03:46:37;18.85;;;8.13;;
41946;SDS011;27638;42.184;24.848;2023-02-18T03:49:04;15.43;;;7.93;;
41946;SDS011;27638;42.184;24.848;2023-02-18T03:51:30;14.55;;;8.38;;
41946;SDS011;27638;42.184;24.848;2023-02-18T03:53:56;17.48;;;7.75;;
41946;SDS011;27638;42.184;24.848;2023-02-18T03:56:22;19.45;;;8.70;;
41946;SDS011;27638;42.184;24.848;2023-02-18T03:58:47;15.43;;;7.93;;
41946;SDS011;27638;42.184;24.848;2023-02-18T04:01:13;11.98;;;6.30;;
41946;SDS011;27638;42.184;24.848;2023-02-18T04:03:39;10.93;;;5.85;;
41946;SDS011;27638;42.184;24.848;2023-02-18T04:06:05;13.02;;;5.60;;
41946;SDS011;27638;42.184;24.848;2023-02-18T04:08:31;11.73;;;5.97;;
41946;SDS011;27638;42.184;24.848;2023-02-18T04:10:57;10.38;;;5.78;;
41946;SDS011;27638;42.184;24.848;2023-02-18T04:13:22;12.93;;;5.90;;
41946;SDS011;27638;42.184;24.848;2023-02-18T04:15:48;9.63;;;5.90;;
41946;SDS011;27638;42.184;24.848;2023-02-18T04:18:14;9.48;;;6.32;;
41946;SDS011;27638;42.184;24.848;2023-02-18T04:20:40;10.95;;;5.90;;
41946;SDS011;27638;42.184;24.848;2023-02-18T04:23:05;10.27;;;5.78;;
41946;SDS011;27638;42.184;24.848;2023-02-18T04:25:31;9.20;;;5.88;;
41946;SDS011;27638;42.184;24.848;2023-02-18T04:27:57;9.90;;;5.53;;
41946;SDS011;27638;42.184;24.848;2023-02-18T04:30:23;9.18;;;6.40;;
41946;SDS011;27638;42.184;24.848;2023-02-18T04:32:48;12.30;;;6.95;;
41946;SDS011;27638;42.184;24.848;2023-02-18T04:35:14;10.88;;;6.05;;
41946;SDS011;27638;42.184;24.848;2023-02-18T04:37:39;9.73;;;6.13;;
41946;SDS011;27638;42.184;24.848;2023-02-18T04:40:05;13.23;;;8.23;;
41946;SDS011;27638;42.184;24.848;2023-02-18T04:42:31;14.52;;;8.52;;
41946;SDS011;27638;42.184;24.848;2023-02-18T04:44:57;14.30;;;8.75;;
41946;SDS011;27638;42.184;24.848;2023-02-18T04:47:22;15.02;;;7.85;;
41946;SDS011;27638;42.184;24.848;2023-02-18T04:49:47;10.13;;;6.03;;
41946;SDS011;27638;42.184;24.848;2023-02-18T04:52:13;10.15;;;5.82;;
41946;SDS011;27638;42.184;24.848;2023-02-18T04:54:38;10.60;;;5.70;;
41946;SDS011;27638;42.184;24.848;2023-02-18T04:57:04;10.02;;;5.85;;
41946;SDS011;27638;42.184;24.848;2023-02-18T04:59:29;9.57;;;6.57;;
41946;SDS011;27638;42.184;24.848;2023-02-18T05:01:55;9.70;;;5.68;;
41946;SDS011;27638;42.184;24.848;2023-02-18T05:04:20;11.25;;;5.78;;
41946;SDS011;27638;42.184;24.848;2023-02-18T05:06:46;12.38;;;6.57;;
41946;SDS011;27638;42.184;24.848;2023-02-18T05:09:11;12.82;;;6.63;;
41946;SDS011;27638;42.184;24.848;2023-02-18T05:11:37;9.75;;;5.88;;
41946;SDS011;27638;42.184;24.848;2023-02-18T05:14:02;12.18;;;7.15;;
41946;SDS011;27638;42.184;24.848;2023-02-18T05:16:28;10.32;;;5.60;;
41946;SDS011;27638;42.184;24.848;2023-02-18T05:18:54;10.63;;;4.68;;
41946;SDS011;27638;42.184;24.848;2023-02-18T05:21:19;8.90;;;5.47;;
41946;SDS011;27638;42.184;24.848;2023-02-18T05:23:45;11.05;;;5.95;;
41946;SDS011;27638;42.184;24.848;2023-02-18T05:26:10;10.10;;;5.40;;
41946;SDS011;27638;42.184;24.848;2023-02-18T05:28:35;12.18;;;5.85;;
41946;SDS011;27638;42.184;24.848;2023-02-18T05:31:01;13.63;;;6.45;;
41946;SDS011;27638;42.184;24.848;2023-02-18T05:33:27;12.50;;;6.55;;
41946;SDS011;27638;42.184;24.848;2023-02-18T05:35:52;12.25;;;7.75;;
41946;SDS011;27638;42.184;24.848;2023-02-18T05:38:18;15.93;;;7.53;;
41946;SDS011;27638;42.184;24.848;2023-02-18T05:40:44;10.07;;;6.00;;
41946;SDS011;27638;42.184;24.848;2023-02-18T05:43:09;10.18;;;5.45;;
41946;SDS011;27638;42.184;24.848;2023-02-18T05:45:35;11.30;;;5.30;;
41946;SDS011;27638;42.184;24.848;2023-02-18T05:48:01;13.20;;;6.85;;
41946;SDS011;27638;42.184;24.848;2023-02-18T05:50:27;10.90;;;5.82;;
41946;SDS011;27638;42.184;24.848;2023-02-18T05:52:52;14.07;;;6.10;;
41946;SDS011;27638;42.184;24.848;2023-02-18T05:55:18;11.50;;;6.20;;
41946;SDS011;27638;42.184;24.848;2023-02-18T05:57:43;8.05;;;5.15;;
41946;SDS011;27638;42.184;24.848;2023-02-18T06:00:09;8.45;;;4.97;;
41946;SDS011;27638;42.184;24.848;2023-02-18T06:02:36;10.80;;;5.85;;
41946;SDS011;27638;42.184;24.848;2023-02-18T06:05:02;15.98;;;8.93;;
41946;SDS011;27638;42.184;24.848;2023-02-18T06:07:28;10.57;;;6.13;;
41946;SDS011;27638;42.184;24.848;2023-02-18T06:09:54;8.00;;;5.82;;
41946;SDS011;27638;42.184;24.848;2023-02-18T06:12:19;8.55;;;5.15;;
41946;SDS011;27638;42.184;24.848;2023-02-18T06:14:45;11.15;;;5.10;;
41946;SDS011;27638;42.184;24.848;2023-02-18T06:17:11;10.20;;;5.30;;
41946;SDS011;27638;42.184;24.848;2023-02-18T06:19:37;13.45;;;6.07;;
41946;SDS011;27638;42.184;24.848;2023-02-18T06:22:03;13.82;;;7.88;;
41946;SDS011;27638;42.184;24.848;2023-02-18T06:24:29;15.48;;;7.60;;
41946;SDS011;27638;42.184;24.848;2023-02-18T06:26:54;15.80;;;6.45;;
41946;SDS011;27638;42.184;24.848;2023-02-18T06:29:20;12.25;;;5.82;;
41946;SDS011;27638;42.184;24.848;2023-02-18T06:31:46;10.48;;;5.57;;
41946;SDS011;27638;42.184;24.848;2023-02-18T06:34:11;9.80;;;5.90;;
41946;SDS011;27638;42.184;24.848;2023-02-18T06:36:36;11.60;;;5.05;;
41946;SDS011;27638;42.184;24.848;2023-02-18T06:39:03;16.45;;;7.47;;
41946;SDS011;27638;42.184;24.848;2023-02-18T06:41:29;21.05;;;8.75;;
41946;SDS011;27638;42.184;24.848;2023-02-18T06:43:54;18.15;;;9.20;;
41946;SDS011;27638;42.184;24.848;2023-02-18T06:46:20;19.02;;;6.85;;
41946;SDS011;27638;42.184;24.848;2023-02-18T06:48:45;14.75;;;7.45;;
41946;SDS011;27638;42.184;24.848;2023-02-18T06:51:11;18.83;;;7.60;;
41946;SDS011;27638;42.184;24.848;2023-02-18T06:53:37;12.70;;;6.07;;
41946;SDS011;27638;42.184;24.848;2023-02-18T06:56:02;11.82;;;5.95;;
41946;SDS011;27638;42.184;24.848;2023-02-18T06:58:28;9.48;;;5.35;;
41946;SDS011;27638;42.184;24.848;2023-02-18T07:00:53;8.48;;;5.50;;
41946;SDS011;27638;42.184;24.848;2023-02-18T07:03:18;10.77;;;5.85;;
41946;SDS011;27638;42.184;24.848;2023-02-18T07:05:44;11.13;;;5.93;;
41946;SDS011;27638;42.184;24.848;2023-02-18T07:08:09;9.00;;;5.25;;
41946;SDS011;27638;42.184;24.848;2023-02-18T07:10:35;10.10;;;5.32;;
41946;SDS011;27638;42.184;24.848;2023-02-18T07:13:01;10.20;;;5.65;;
41946;SDS011;27638;42.184;24.848;2023-02-18T07:15:26;12.60;;;6.20;;
41946;SDS011;27638;42.184;24.848;2023-02-18T07:17:52;11.23;;;6.13;;
41946;SDS011;27638;42.184;24.848;2023-02-18T07:20:21;8.20;;;5.43;;
41946;SDS011;27638;42.184;24.848;2023-02-18T07:22:48;8.25;;;4.68;;
41946;SDS011;27638;42.184;24.848;2023-02-18T07:25:14;9.07;;;4.18;;
41946;SDS011;27638;42.184;24.848;2023-02-18T07:27:40;9.35;;;4.88;;
41946;SDS011;27638;42.184;24.848;2023-02-18T07:30:05;7.28;;;4.43;;
41946;SDS011;27638;42.184;24.848;2023-02-18T07:32:31;10.80;;;4.90;;
41946;SDS011;27638;42.184;24.848;2023-02-18T07:34:57;5.72;;;4.20;;
41946;SDS011;27638;42.184;24.848;2023-02-18T07:37:22;8.68;;;4.25;;
41946;SDS011;27638;42.184;24.848;2023-02-18T07:39:48;7.78;;;3.88;;
41946;SDS011;27638;42.184;24.848;2023-02-18T07:42:13;8.05;;;4.03;;
41946;SDS011;27638;42.184;24.848;2023-02-18T07:44:40;8.57;;;4.30;;
41946;SDS011;27638;42.184;24.848;2023-02-18T07:47:06;7.43;;;4.20;;
41946;SDS011;27638;42.184;24.848;2023-02-18T07:49:33;7.90;;;4.63;;
41946;SDS011;27638;42.184;24.848;2023-02-18T07:51:59;7.00;;;4.75;;
41946;SDS011;27638;42.184;24.848;2023-02-18T07:54:25;9.82;;;4.55;;
41946;SDS011;27638;42.184;24.848;2023-02-18T07:56:51;8.98;;;4.63;;
41946;SDS011;27638;42.184;24.848;2023-02-18T07:59:16;9.25;;;4.53;;
41946;SDS011;27638;42.184;24.848;2023-02-18T08:01:42;9.85;;;4.18;;
41946;SDS011;27638;42.184;24.848;2023-02-18T08:04:07;7.10;;;4.20;;
41946;SDS011;27638;42.184;24.848;2023-02-18T08:06:34;8.15;;;4.53;;
41946;SDS011;27638;42.184;24.848;2023-02-18T08:09:05;9.10;;;4.70;;
41946;SDS011;27638;42.184;24.848;2023-02-18T08:11:31;8.13;;;4.28;;
41946;SDS011;27638;42.184;24.848;2023-02-18T08:13:57;5.85;;;3.85;;
41946;SDS011;27638;42.184;24.848;2023-02-18T08:16:22;7.60;;;4.45;;
41946;SDS011;27638;42.184;24.848;2023-02-18T08:18:48;10.20;;;5.10;;
41946;SDS011;27638;42.184;24.848;2023-02-18T08:21:15;8.00;;;4.97;;
41946;SDS011;27638;42.184;24.848;2023-02-18T08:23:42;10.35;;;4.80;;
41946;SDS011;27638;42.184;24.848;2023-02-18T08:26:08;7.90;;;4.40;;
41946;SDS011;27638;42.184;24.848;2023-02-18T08:28:34;9.65;;;4.70;;
41946;SDS011;27638;42.184;24.848;2023-02-18T08:31:00;8.20;;;4.88;;
41946;SDS011;27638;42.184;24.848;2023-02-18T08:33:25;7.55;;;4.43;;
41946;SDS011;27638;42.184;24.848;2023-02-18T08:35:52;9.85;;;5.28;;
41946;SDS011;27638;42.184;24.848;2023-02-18T08:38:18;11.13;;;5.00;;
41946;SDS011;27638;42.184;24.848;2023-02-18T08:40:45;7.72;;;4.55;;
41946;SDS011;27638;42.184;24.848;2023-02-18T08:43:11;8.45;;;5.70;;
41946;SDS011;27638;42.184;24.848;2023-02-18T08:45:37;6.10;;;4.78;;
41946;SDS011;27638;42.184;24.848;2023-02-18T08:48:04;6.93;;;4.75;;
41946;SDS011;27638;42.184;24.848;2023-02-18T08:50:32;12.00;;;4.57;;
41946;SDS011;27638;42.184;24.848;2023-02-18T08:52:57;6.40;;;4.22;;
41946;SDS011;27638;42.184;24.848;2023-02-18T08:55:27;7.70;;;3.92;;
41946;SDS011;27638;42.184;24.848;2023-02-18T08:57:54;7.25;;;4.63;;
41946;SDS011;27638;42.184;24.848;2023-02-18T09:00:19;8.60;;;4.43;;
41946;SDS011;27638;42.184;24.848;2023-02-18T09:02:45;8.57;;;4.93;;
41946;SDS011;27638;42.184;24.848;2023-02-18T09:05:12;6.15;;;4.28;;
41946;SDS011;27638;42.184;24.848;2023-02-18T09:07:38;10.05;;;3.92;;
41946;SDS011;27638;42.184;24.848;2023-02-18T09:10:04;9.00;;;3.63;;
41946;SDS011;27638;42.184;24.848;2023-02-18T09:12:30;8.88;;;4.05;;
41946;SDS011;27638;42.184;24.848;2023-02-18T09:14:56;5.22;;;3.78;;
41946;SDS011;27638;42.184;24.848;2023-02-18T09:17:21;5.95;;;3.90;;
41946;SDS011;27638;42.184;24.848;2023-02-18T09:19:47;8.90;;;4.10;;
41946;SDS011;27638;42.184;24.848;2023-02-18T09:22:12;9.13;;;4.15;;
41946;SDS011;27638;42.184;24.848;2023-02-18T09:24:39;8.00;;;4.25;;
41946;SDS011;27638;42.184;24.848;2023-02-18T09:27:05;8.55;;;4.35;;
41946;SDS011;27638;42.184;24.848;2023-02-18T09:29:32;7.88;;;4.07;;
41946;SDS011;27638;42.184;24.848;2023-02-18T09:32:01;7.13;;;4.53;;
41946;SDS011;27638;42.184;24.848;2023-02-18T09:34:27;7.45;;;3.78;;
41946;SDS011;27638;42.184;24.848;2023-02-18T09:36:53;8.32;;;3.88;;
41946;SDS011;27638;42.184;24.848;2023-02-18T09:39:19;7.78;;;4.30;;
41946;SDS011;27638;42.184;24.848;2023-02-18T09:41:46;7.57;;;3.92;;
41946;SDS011;27638;42.184;24.848;2023-02-18T09:47:18;8.13;;;4.43;;
41946;SDS011;27638;42.184;24.848;2023-02-18T09:49:59;7.40;;;4.82;;
41946;SDS011;27638;42.184;24.848;2023-02-18T09:52:32;8.63;;;4.80;;
41946;SDS011;27638;42.184;24.848;2023-02-18T09:57:41;6.47;;;3.97;;
41946;SDS011;27638;42.184;24.848;2023-02-18T10:00:28;7.72;;;4.57;;
41946;SDS011;27638;42.184;24.848;2023-02-18T10:02:56;9.80;;;4.65;;
41946;SDS011;27638;42.184;24.848;2023-02-18T10:05:25;11.65;;;3.95;;
41946;SDS011;27638;42.184;24.848;2023-02-18T10:07:54;11.20;;;5.32;;
41946;SDS011;27638;42.184;24.848;2023-02-18T10:10:39;9.10;;;4.07;;
41946;SDS011;27638;42.184;24.848;2023-02-18T10:13:27;10.02;;;4.50;;
41946;SDS011;27638;42.184;24.848;2023-02-18T10:15:54;7.38;;;4.50;;
41946;SDS011;27638;42.184;24.848;2023-02-18T10:18:27;6.90;;;4.55;;
41946;SDS011;27638;42.184;24.848;2023-02-18T10:21:10;7.55;;;5.15;;
41946;SDS011;27638;42.184;24.848;2023-02-18T10:23:42;7.28;;;5.07;;
41946;SDS011;27638;42.184;24.848;2023-02-18T10:26:17;8.35;;;5.82;;
41946;SDS011;27638;42.184;24.848;2023-02-18T10:28:43;10.85;;;4.63;;
41946;SDS011;27638;42.184;24.848;2023-02-18T10:31:10;9.65;;;5.72;;
41946;SDS011;27638;42.184;24.848;2023-02-18T10:36:48;8.52;;;5.32;;
41946;SDS011;27638;42.184;24.848;2023-02-18T10:42:20;6.78;;;4.20;;
41946;SDS011;27638;42.184;24.848;2023-02-18T10:47:46;7.72;;;4.43;;
41946;SDS011;27638;42.184;24.848;2023-02-18T10:53:06;6.63;;;3.60;;
41946;SDS011;27638;42.184;24.848;2023-02-18T10:55:40;4.78;;;3.42;;
41946;SDS011;27638;42.184;24.848;2023-02-18T11:00:51;10.93;;;3.30;;
41946;SDS011;27638;42.184;24.848;2023-02-18T11:03:19;6.13;;;3.30;;
41946;SDS011;27638;42.184;24.848;2023-02-18T11:05:45;8.00;;;3.58;;
41946;SDS011;27638;42.184;24.848;2023-02-18T11:08:17;6.25;;;2.72;;
41946;SDS011;27638;42.184;24.848;2023-02-18T11:10:46;7.80;;;3.28;;
41946;SDS011;27638;42.184;24.848;2023-02-18T11:13:17;8.43;;;3.60;;
41946;SDS011;27638;42.184;24.848;2023-02-18T11:16:03;10.40;;;3.33;;
41946;SDS011;27638;42.184;24.848;2023-02-18T11:18:43;9.20;;;3.92;;
41946;SDS011;27638;42.184;24.848;2023-02-18T11:21:23;6.10;;;3.42;;
41946;SDS011;27638;42.184;24.848;2023-02-18T11:24:13;5.90;;;3.20;;
41946;SDS011;27638;42.184;24.848;2023-02-18T11:26:40;7.93;;;3.83;;
41946;SDS011;27638;42.184;24.848;2023-02-18T11:29:13;4.13;;;3.22;;
41946;SDS011;27638;42.184;24.848;2023-02-18T11:31:46;5.70;;;2.83;;
41946;SDS011;27638;42.184;24.848;2023-02-18T11:34:17;5.40;;;2.80;;
41946;SDS011;27638;42.184;24.848;2023-02-18T11:37:08;3.63;;;2.35;;
41946;SDS011;27638;42.184;24.848;2023-02-18T11:39:37;7.07;;;2.88;;
41946;SDS011;27638;42.184;24.848;2023-02-18T11:42:10;6.45;;;2.60;;
41946;SDS011;27638;42.184;24.848;2023-02-18T11:44:39;4.13;;;2.53;;
41946;SDS011;27638;42.184;24.848;2023-02-18T11:49:39;8.88;;;3.90;;
41946;SDS011;27638;42.184;24.848;2023-02-18T11:54:43;4.50;;;3.03;;
41946;SDS011;27638;42.184;24.848;2023-02-18T11:57:25;4.78;;;2.65;;
41946;SDS011;27638;42.184;24.848;2023-02-18T11:59:52;3.50;;;2.67;;
41946;SDS011;27638;42.184;24.848;2023-02-18T12:02:27;4.38;;;3.05;;
41946;SDS011;27638;42.184;24.848;2023-02-18T12:07:40;7.75;;;4.80;;
41946;SDS011;27638;42.184;24.848;2023-02-18T12:10:18;5.57;;;3.50;;
41946;SDS011;27638;42.184;24.848;2023-02-18T12:12:59;6.25;;;4.25;;
41946;SDS011;27638;42.184;24.848;2023-02-18T12:15:31;5.00;;;2.78;;
41946;SDS011;27638;42.184;24.848;2023-02-18T12:18:10;5.47;;;3.28;;
41946;SDS011;27638;42.184;24.848;2023-02-18T12:20:49;8.18;;;4.57;;
41946;SDS011;27638;42.184;24.848;2023-02-18T12:26:17;5.93;;;3.42;;
41946;SDS011;27638;42.184;24.848;2023-02-18T12:48:05;5.60;;;2.63;;
41946;SDS011;27638;42.184;24.848;2023-02-18T12:56:52;6.05;;;2.80;;
41946;SDS011;27638;42.184;24.848;2023-02-18T13:15:35;5.25;;;2.75;;
41946;SDS011;27638;42.184;24.848;2023-02-18T13:18:21;7.25;;;2.92;;
41946;SDS011;27638;42.184;24.848;2023-02-18T13:20:57;5.72;;;2.42;;
41946;SDS011;27638;42.184;24.848;2023-02-18T13:23:27;3.10;;;2.30;;
41946;SDS011;27638;42.184;24.848;2023-02-18T13:25:56;4.32;;;2.47;;
41946;SDS011;27638;42.184;24.848;2023-02-18T13:28:27;3.42;;;2.05;;
41946;SDS011;27638;42.184;24.848;2023-02-18T13:33:50;3.83;;;2.22;;
41946;SDS011;27638;42.184;24.848;2023-02-18T13:39:32;8.07;;;2.70;;
41946;SDS011;27638;42.184;24.848;2023-02-18T13:55:40;4.75;;;2.58;;
41946;SDS011;27638;42.184;24.848;2023-02-18T14:03:56;5.05;;;2.55;;
41946;SDS011;27638;42.184;24.848;2023-02-18T14:06:33;6.32;;;2.90;;
41946;SDS011;27638;42.184;24.848;2023-02-18T14:09:04;4.28;;;2.63;;
41946;SDS011;27638;42.184;24.848;2023-02-18T14:11:48;7.43;;;3.15;;
41946;SDS011;27638;42.184;24.848;2023-02-18T14:19:37;5.80;;;3.47;;
41946;SDS011;27638;42.184;24.848;2023-02-18T14:27:45;6.50;;;4.38;;
41946;SDS011;27638;42.184;24.848;2023-02-18T14:30:15;7.43;;;4.55;;
41946;SDS011;27638;42.184;24.848;2023-02-18T14:32:44;8.18;;;4.43;;
41946;SDS011;27638;42.184;24.848;2023-02-18T14:43:06;4.85;;;3.53;;
41946;SDS011;27638;42.184;24.848;2023-02-18T14:45:55;4.82;;;3.30;;
41946;SDS011;27638;42.184;24.848;2023-02-18T14:51:14;6.07;;;3.67;;
41946;SDS011;27638;42.184;24.848;2023-02-18T14:53:46;4.38;;;3.20;;
41946;SDS011;27638;42.184;24.848;2023-02-18T14:56:13;5.93;;;3.05;;
41946;SDS011;27638;42.184;24.848;2023-02-18T14:58:44;4.75;;;3.47;;
41946;SDS011;27638;42.184;24.848;2023-02-18T15:04:04;7.80;;;3.50;;
41946;SDS011;27638;42.184;24.848;2023-02-18T15:06:33;6.50;;;3.47;;
41946;SDS011;27638;42.184;24.848;2023-02-18T15:09:01;9.73;;;4.10;;
41946;SDS011;27638;42.184;24.848;2023-02-18T15:11:44;6.97;;;4.38;;
41946;SDS011;27638;42.184;24.848;2023-02-18T15:14:21;8.38;;;3.72;;
41946;SDS011;27638;42.184;24.848;2023-02-18T15:16:49;5.60;;;3.53;;
41946;SDS011;27638;42.184;24.848;2023-02-18T15:19:16;6.35;;;4.10;;
41946;SDS011;27638;42.184;24.848;2023-02-18T15:21:46;6.13;;;4.35;;
41946;SDS011;27638;42.184;24.848;2023-02-18T15:24:23;6.93;;;4.47;;
41946;SDS011;27638;42.184;24.848;2023-02-18T15:26:57;6.50;;;3.40;;
41946;SDS011;27638;42.184;24.848;2023-02-18T15:29:33;6.45;;;3.55;;
41946;SDS011;27638;42.184;24.848;2023-02-18T15:31:59;5.18;;;3.28;;
41946;SDS011;27638;42.184;24.848;2023-02-18T15:34:35;8.15;;;4.22;;
41946;SDS011;27638;42.184;24.848;2023-02-18T15:37:06;6.20;;;4.00;;
41946;SDS011;27638;42.184;24.848;2023-02-18T15:39:35;7.30;;;4.43;;
41946;SDS011;27638;42.184;24.848;2023-02-18T15:44:48;10.75;;;5.05;;
41946;SDS011;27638;42.184;24.848;2023-02-18T15:47:16;10.10;;;4.90;;
41946;SDS011;27638;42.184;24.848;2023-02-18T15:49:46;9.48;;;5.32;;
41946;SDS011;27638;42.184;24.848;2023-02-18T15:52:15;8.80;;;4.63;;
41946;SDS011;27638;42.184;24.848;2023-02-18T15:54:47;9.63;;;5.13;;
41946;SDS011;27638;42.184;24.848;2023-02-18T15:57:13;6.60;;;4.15;;
41946;SDS011;27638;42.184;24.848;2023-02-18T15:59:51;4.82;;;3.65;;
41946;SDS011;27638;42.184;24.848;2023-02-18T16:02:21;7.93;;;4.20;;
41946;SDS011;27638;42.184;24.848;2023-02-18T16:04:58;10.65;;;6.18;;
41946;SDS011;27638;42.184;24.848;2023-02-18T16:10:13;8.02;;;4.55;;
41946;SDS011;27638;42.184;24.848;2023-02-18T16:12:44;7.85;;;4.65;;
41946;SDS011;27638;42.184;24.848;2023-02-18T16:15:15;12.20;;;7.25;;
41946;SDS011;27638;42.184;24.848;2023-02-18T16:17:47;15.40;;;8.43;;
41946;SDS011;27638;42.184;24.848;2023-02-18T16:20:34;6.38;;;4.35;;
41946;SDS011;27638;42.184;24.848;2023-02-18T16:23:09;6.82;;;3.80;;
41946;SDS011;27638;42.184;24.848;2023-02-18T16:28:06;9.48;;;4.25;;
41946;SDS011;27638;42.184;24.848;2023-02-18T16:30:40;7.80;;;4.53;;
41946;SDS011;27638;42.184;24.848;2023-02-18T16:33:07;10.27;;;5.85;;
41946;SDS011;27638;42.184;24.848;2023-02-18T16:35:33;9.32;;;4.70;;
41946;SDS011;27638;42.184;24.848;2023-02-18T16:37:59;6.13;;;4.28;;
41946;SDS011;27638;42.184;24.848;2023-02-18T16:40:42;7.07;;;3.90;;
41946;SDS011;27638;42.184;24.848;2023-02-18T16:43:12;9.13;;;5.38;;
41946;SDS011;27638;42.184;24.848;2023-02-18T16:45:40;10.18;;;5.18;;
41946;SDS011;27638;42.184;24.848;2023-02-18T16:50:44;8.25;;;4.70;;
41946;SDS011;27638;42.184;24.848;2023-02-18T16:53:11;10.02;;;6.28;;
41946;SDS011;27638;42.184;24.848;2023-02-18T16:55:38;8.10;;;5.72;;
41946;SDS011;27638;42.184;24.848;2023-02-18T16:58:04;9.60;;;5.82;;
41946;SDS011;27638;42.184;24.848;2023-02-18T17:00:29;11.43;;;6.30;;
41946;SDS011;27638;42.184;24.848;2023-02-18T17:02:55;17.08;;;7.82;;
41946;SDS011;27638;42.184;24.848;2023-02-18T17:05:27;19.60;;;10.00;;
41946;SDS011;27638;42.184;24.848;2023-02-18T17:07:56;35.08;;;15.02;;
41946;SDS011;27638;42.184;24.848;2023-02-18T17:10:30;18.52;;;8.73;;
41946;SDS011;27638;42.184;24.848;2023-02-18T17:12:56;18.13;;;10.80;;
41946;SDS011;27638;42.184;24.848;2023-02-18T17:15:25;11.77;;;7.50;;
41946;SDS011;27638;42.184;24.848;2023-02-18T17:17:54;12.27;;;7.28;;
41946;SDS011;27638;42.184;24.848;2023-02-18T17:20:20;13.27;;;6.80;;
41946;SDS011;27638;42.184;24.848;2023-02-18T17:22:45;13.65;;;6.85;;
41946;SDS011;27638;42.184;24.848;2023-02-18T17:25:14;15.25;;;8.57;;
41946;SDS011;27638;42.184;24.848;2023-02-18T17:27:44;8.90;;;6.70;;
41946;SDS011;27638;42.184;24.848;2023-02-18T17:30:10;8.68;;;6.35;;
41946;SDS011;27638;42.184;24.848;2023-02-18T17:32:36;8.80;;;4.80;;
41946;SDS011;27638;42.184;24.848;2023-02-18T17:35:01;7.13;;;4.65;;